Time;durP1;ratioP1;P1;durP2;ratioP2;P2;SDS_P1;SDS_P2;PMS_P1;PMS_P2;Temp;Humidity;BMP_temperature;BMP_pressure;BME280_temperature;BME280_humidity;BME280_pressure;Samples;Min_cycle;Max_cycle;Signal;HPM_P1;HPM_P2
2023/01/04 00:00:54;;;;;;;7.9;5.9;;;;;;;6.33;99.81348;949.6;;;;
2023/01/04 00:03:23;;;;;;;9.9;6.4;;;;;;;6.23;100;949.6146;;;;
2023/01/04 00:05:51;;;;;;;8.2;5.6;;;;;;;6.19;100;949.5041;;;;
2023/01/04 00:08:23;;;;;;;10.9;6.5;;;;;;;6.27;100;949.5181;;;;
2023/01/04 00:11:04;;;;;;;8.8;6.3;;;;;;;6.24;99.87207;949.5359;;;;
2023/01/04 00:13:33;;;;;;;7.2;5.5;;;;;;;6.17;100;949.509;;;;
2023/01/04 00:16:12;;;;;;;6.5;5.2;;;;;;;6.13;100;949.5198;;;;
2023/01/04 00:18:47;;;;;;;6.3;5.2;;;;;;;6.16;100;949.4833;;;;
2023/01/04 00:21:19;;;;;;;6.5;4.9;;;;;;;6.11;100;949.4841;;;;
2023/01/04 00:23:49;;;;;;;6.6;4.4;;;;;;;6.07;100;949.3787;;;;
2023/01/04 00:26:14;;;;;;;5.2;4.7;;;;;;;6.13;100;949.4675;;;;
2023/01/04 00:28:42;;;;;;;6;5.1;;;;;;;6.15;100;949.4249;;;;
2023/01/04 00:31:10;;;;;;;6.1;4.7;;;;;;;6.23;100;949.4208;;;;
2023/01/04 00:33:35;;;;;;;5.7;4.9;;;;;;;6.35;100;949.4333;;;;
2023/01/04 00:36:07;;;;;;;5.1;4;;;;;;;6.33;99.72266;949.4217;;;;
2023/01/04 00:38:33;;;;;;;5.9;4.2;;;;;;;6.27;99.90234;949.4116;;;;
2023/01/04 00:41:04;;;;;;;5.9;4;;;;;;;6.33;99.65527;949.4069;;;;
2023/01/04 00:43:34;;;;;;;3.8;3.4;;;;;;;6.24;99.65723;949.3398;;;;
2023/01/04 00:46:00;;;;;;;3.3;2.6;;;;;;;6.25;99.68359;949.3599;;;;
2023/01/04 00:48:24;;;;;;;3.7;2.9;;;;;;;6.22;99.50586;949.3278;;;;
2023/01/04 00:50:49;;;;;;;2.9;2.6;;;;;;;6.17;99.90234;949.3674;;;;
2023/01/04 00:53:15;;;;;;;3.4;2.5;;;;;;;6.14;100;949.3627;;;;
2023/01/04 00:55:40;;;;;;;3.4;3;;;;;;;6.03;100;949.3191;;;;
2023/01/04 00:58:06;;;;;;;3.2;2.8;;;;;;;5.96;100;949.3798;;;;
2023/01/04 01:00:31;;;;;;;2.9;2.6;;;;;;;5.94;100;949.395;;;;
2023/01/04 01:03:01;;;;;;;3.2;2.6;;;;;;;5.99;100;949.3181;;;;
2023/01/04 01:05:28;;;;;;;2.1;2;;;;;;;5.99;100;949.3455;;;;
2023/01/04 01:07:53;;;;;;;1.8;1.7;;;;;;;5.99;100;949.3119;;;;
2023/01/04 01:10:18;;;;;;;2;1.8;;;;;;;6.02;100;949.423;;;;
2023/01/04 01:12:46;;;;;;;2.3;1.9;;;;;;;6.03;100;949.4127;;;;
2023/01/04 01:15:12;;;;;;;2.2;1.9;;;;;;;6;99.7832;949.4356;;;;
2023/01/04 01:17:40;;;;;;;3.2;2.5;;;;;;;5.94;99.63281;949.3947;;;;
2023/01/04 01:20:09;;;;;;;3.2;2.9;;;;;;;5.9;99.60156;949.3678;;;;
2023/01/04 01:22:33;;;;;;;3.4;3.1;;;;;;;5.85;99.57813;949.3097;;;;
2023/01/04 01:25:00;;;;;;;4.4;3.4;;;;;;;5.77;99.55859;949.2989;;;;
2023/01/04 01:27:25;;;;;;;4.7;3.6;;;;;;;5.73;99.32715;949.3834;;;;
2023/01/04 01:29:52;;;;;;;4.4;3.9;;;;;;;5.67;99.43359;949.4105;;;;
2023/01/04 01:32:17;;;;;;;5.4;4.3;;;;;;;5.54;99.81055;949.3709;;;;
2023/01/04 01:34:42;;;;;;;5.7;4.8;;;;;;;5.47;100;949.3807;;;;
2023/01/04 01:37:08;;;;;;;6.7;4.5;;;;;;;5.48;100;949.4175;;;;
2023/01/04 01:39:33;;;;;;;6.4;5.1;;;;;;;5.38;100;949.4849;;;;
2023/01/04 01:42:00;;;;;;;13.4;8.3;;;;;;;5.22;100;949.4434;;;;
2023/01/04 01:44:25;;;;;;;9.6;6.3;;;;;;;5.22;100;949.4364;;;;
2023/01/04 01:46:50;;;;;;;6.5;4.7;;;;;;;5.15;100;949.3768;;;;
2023/01/04 01:49:16;;;;;;;6.3;4;;;;;;;5.15;100;949.435;;;;
2023/01/04 01:51:45;;;;;;;6.2;3.8;;;;;;;5.11;99.6875;949.5502;;;;
2023/01/04 01:54:10;;;;;;;4.9;3.2;;;;;;;5.13;99.11621;949.5966;;;;
2023/01/04 01:56:37;;;;;;;5.1;3.2;;;;;;;5.03;99.10645;949.6781;;;;
2023/01/04 01:59:03;;;;;;;3.1;2.4;;;;;;;4.89;100;949.6505;;;;
2023/01/04 02:01:28;;;;;;;3.1;2.2;;;;;;;4.85;100;949.6913;;;;
2023/01/04 02:04:07;;;;;;;2.3;1.9;;;;;;;4.78;100;949.628;;;;
2023/01/04 02:06:32;;;;;;;2.1;1.9;;;;;;;4.69;100;949.5489;;;;
2023/01/04 02:09:00;;;;;;;2.4;1.9;;;;;;;4.64;100;949.4974;;;;
2023/01/04 02:11:42;;;;;;;2;1.7;;;;;;;4.56;100;949.4323;;;;
2023/01/04 02:14:28;;;;;;;2.2;1.9;;;;;;;4.55;100;949.4033;;;;
2023/01/04 02:16:37;;;;;;;2.1;1.5;;;;;;;4.53;100;949.3198;;;;
2023/01/04 02:19:02;;;;;;;2.2;1.6;;;;;;;4.5;100;949.3749;;;;
2023/01/04 02:21:27;;;;;;;2.3;1.9;;;;;;;4.5;100;949.4182;;;;
2023/01/04 02:23:55;;;;;;;1.6;1.5;;;;;;;4.51;100;949.4369;;;;
2023/01/04 02:26:20;;;;;;;2.4;2.2;;;;;;;4.49;100;949.3658;;;;
2023/01/04 02:28:45;;;;;;;3;2.5;;;;;;;4.51;100;949.3517;;;;
2023/01/04 02:31:16;;;;;;;2.9;2.5;;;;;;;4.33;100;949.2946;;;;
2023/01/04 02:33:41;;;;;;;3.8;2.8;;;;;;;4.23;100;949.1735;;;;
2023/01/04 02:36:06;;;;;;;3.3;2.6;;;;;;;4.21;100;949.2607;;;;
2023/01/04 02:38:32;;;;;;;3.4;2.5;;;;;;;4.16;100;949.1303;;;;
2023/01/04 02:40:57;;;;;;;3;2.6;;;;;;;4.08;100;949.2202;;;;
2023/01/04 02:45:50;;;;;;;5.2;4;;;;;;;4.08;100;949.2316;;;;
2023/01/04 02:50:40;;;;;;;6.3;4.8;;;;;;;4.02;100;949.1922;;;;
2023/01/04 02:53:06;;;;;;;2.3;2.1;;;;;;;4.06;100;949.2364;;;;
2023/01/04 02:55:31;;;;;;;1.8;1.7;;;;;;;4.08;100;949.1638;;;;
2023/01/04 02:57:57;;;;;;;2;1.7;;;;;;;4.08;100;949.1906;;;;
2023/01/04 03:00:22;;;;;;;1.6;1.5;;;;;;;4.01;100;949.1138;;;;
2023/01/04 03:07:49;;;;;;;1.9;1.5;;;;;;;4.07;100;949.1876;;;;
2023/01/04 03:10:15;;;;;;;1.7;1.6;;;;;;;3.91;100;949.1652;;;;
2023/01/04 03:12:43;;;;;;;2.8;1.8;;;;;;;3.92;100;949.1561;;;;
2023/01/04 03:15:08;;;;;;;1.6;1.5;;;;;;;3.92;100;949.2033;;;;
2023/01/04 03:17:33;;;;;;;1.5;1.4;;;;;;;3.86;100;949.1687;;;;
2023/01/04 03:19:58;;;;;;;1.6;1.5;;;;;;;3.82;100;949.1249;;;;
2023/01/04 03:36:57;;;;;;;3.6;2.7;;;;;;;3.31;100;949.0886;;;;
2023/01/04 03:49:02;;;;;;;3.1;2.5;;;;;;;3.42;100;949.0073;;;;
2023/01/04 03:51:31;;;;;;;2.9;2.2;;;;;;;3.41;100;949.0336;;;;
2023/01/04 03:53:56;;;;;;;5.5;4.8;;;;;;;3.34;100;948.991;;;;
2023/01/04 03:56:26;;;;;;;2.6;2.2;;;;;;;3.29;100;949.0447;;;;
2023/01/04 03:58:51;;;;;;;2;1.8;;;;;;;3.23;100;949.0048;;;;
2023/01/04 04:02:38;;;;;;;7.4;6.8;;;;;;;3.26;100;949.0708;;;;
2023/01/04 04:10:03;;;;;;;1.7;1.6;;;;;;;3.03;100;948.9888;;;;
2023/01/04 04:12:28;;;;;;;2.1;1.9;;;;;;;2.88;100;948.8474;;;;
2023/01/04 04:14:54;;;;;;;2.3;2.1;;;;;;;2.81;100;948.9494;;;;
2023/01/04 04:17:19;;;;;;;3.3;2.1;;;;;;;2.79;100;948.9561;;;;
2023/01/04 04:19:45;;;;;;;2.4;2.1;;;;;;;2.92;100;948.97;;;;
2023/01/04 04:22:11;;;;;;;2.3;2.1;;;;;;;3.05;100;948.9641;;;;
2023/01/04 04:24:39;;;;;;;3;2.2;;;;;;;3;100;948.9874;;;;
2023/01/04 04:27:04;;;;;;;3.2;2.4;;;;;;;2.98;100;948.9998;;;;
2023/01/04 04:29:31;;;;;;;2.9;2.1;;;;;;;2.93;100;948.9266;;;;
2023/01/04 04:31:56;;;;;;;2.4;2.1;;;;;;;2.91;100;948.959;;;;
2023/01/04 04:34:21;;;;;;;3.6;2.3;;;;;;;2.92;100;948.9799;;;;
2023/01/04 04:36:46;;;;;;;2.7;2;;;;;;;2.89;100;948.9517;;;;
2023/01/04 04:39:14;;;;;;;2.3;2;;;;;;;2.93;100;948.9647;;;;
2023/01/04 04:41:40;;;;;;;1.7;1.6;;;;;;;2.94;100;948.9807;;;;
2023/01/04 04:44:07;;;;;;;2.9;1.9;;;;;;;2.87;100;948.9279;;;;
2023/01/04 04:46:32;;;;;;;2.4;1.9;;;;;;;2.81;100;948.9224;;;;
2023/01/04 04:48:58;;;;;;;2.4;2.2;;;;;;;2.64;100;948.8683;;;;
2023/01/04 04:51:23;;;;;;;2.6;2.2;;;;;;;2.51;100;948.8499;;;;
2023/01/04 04:53:49;;;;;;;2.3;2.1;;;;;;;2.47;100;948.7933;;;;
2023/01/04 04:56:14;;;;;;;3.6;1.8;;;;;;;2.51;100;948.8106;;;;
2023/01/04 04:58:42;;;;;;;3.2;2.4;;;;;;;2.56;100;948.7823;;;;
2023/01/04 05:01:07;;;;;;;3.5;2.7;;;;;;;2.51;100;948.7207;;;;
2023/01/04 05:03:36;;;;;;;3.8;2.6;;;;;;;2.51;100;948.7537;;;;
2023/01/04 05:06:05;;;;;;;4.4;2.6;;;;;;;2.62;100;948.6606;;;;
2023/01/04 05:08:30;;;;;;;3.9;2.9;;;;;;;2.71;100;948.7006;;;;
2023/01/04 05:10:55;;;;;;;4.2;3.1;;;;;;;2.71;100;948.7205;;;;
2023/01/04 05:13:21;;;;;;;4.7;3.8;;;;;;;2.76;100;948.7814;;;;
2023/01/04 05:15:46;;;;;;;4.6;3.7;;;;;;;2.75;100;948.7542;;;;
2023/01/04 05:18:14;;;;;;;4.7;3.6;;;;;;;2.73;100;948.7894;;;;
2023/01/04 05:20:39;;;;;;;5.1;4;;;;;;;2.7;100;948.84;;;;
2023/01/04 05:23:06;;;;;;;4;3.2;;;;;;;2.55;100;948.8472;;;;
2023/01/04 05:25:31;;;;;;;3.3;2.7;;;;;;;2.43;100;948.8856;;;;
2023/01/04 05:27:59;;;;;;;3.2;2.6;;;;;;;2.32;100;948.8685;;;;
2023/01/04 05:32:49;;;;;;;5.7;4.1;;;;;;;2.12;100;948.921;;;;
2023/01/04 05:35:18;;;;;;;5;3.3;;;;;;;2.03;100;948.8962;;;;
2023/01/04 05:37:43;;;;;;;9.2;4.8;;;;;;;2.04;100;948.9426;;;;
2023/01/04 05:40:12;;;;;;;7;4.4;;;;;;;2.18;100;948.8575;;;;
2023/01/04 05:42:43;;;;;;;6.6;4.5;;;;;;;2.24;100;948.8019;;;;
2023/01/04 05:45:15;;;;;;;6.4;4;;;;;;;2.29;100;948.7766;;;;
2023/01/04 05:47:44;;;;;;;6;3.6;;;;;;;2.26;100;948.8965;;;;
2023/01/04 05:50:14;;;;;;;8.1;3.9;;;;;;;2.25;100;948.8676;;;;
2023/01/04 05:52:39;;;;;;;4.5;3.5;;;;;;;2.27;100;948.8232;;;;
2023/01/04 05:55:05;;;;;;;6.5;3.6;;;;;;;2.27;100;948.8398;;;;
2023/01/04 05:57:30;;;;;;;6.6;4.3;;;;;;;2.24;100;948.8692;;;;
2023/01/04 06:00:02;;;;;;;7.2;4.9;;;;;;;2.26;100;948.788;;;;
2023/01/04 06:02:28;;;;;;;10.1;5.8;;;;;;;2.28;100;948.8064;;;;
2023/01/04 06:04:53;;;;;;;8.7;4.9;;;;;;;2.23;100;948.74;;;;
2023/01/04 06:07:21;;;;;;;12.1;4.1;;;;;;;2.23;100;948.7753;;;;
2023/01/04 06:09:46;;;;;;;4;2.7;;;;;;;2.26;100;948.8006;;;;
2023/01/04 06:12:16;;;;;;;4.9;3;;;;;;;2.26;100;948.7361;;;;
2023/01/04 06:14:45;;;;;;;3.4;2.5;;;;;;;2.13;100;948.7861;;;;
2023/01/04 06:17:12;;;;;;;3.6;2.5;;;;;;;2.09;100;948.8328;;;;
2023/01/04 06:19:37;;;;;;;27.2;4.8;;;;;;;2.18;100;948.8356;;;;
2023/01/04 06:22:02;;;;;;;4.9;3.1;;;;;;;2.29;100;948.7162;;;;
2023/01/04 06:24:29;;;;;;;4.6;3.4;;;;;;;2.33;100;948.8625;;;;
2023/01/04 06:27:15;;;;;;;6.4;4;;;;;;;2.33;100;948.8433;;;;
2023/01/04 06:29:41;;;;;;;8.7;4.6;;;;;;;2.25;100;948.9047;;;;
2023/01/04 06:32:07;;;;;;;9.8;5.4;;;;;;;2.24;100;948.8359;;;;
2023/01/04 06:34:35;;;;;;;7.7;5.3;;;;;;;2.28;100;948.9064;;;;
2023/01/04 06:37:00;;;;;;;7.7;5.1;;;;;;;2.33;100;948.9116;;;;
2023/01/04 06:39:29;;;;;;;8.2;6;;;;;;;2.38;100;948.8946;;;;
2023/01/04 06:41:58;;;;;;;10.6;7.9;;;;;;;2.42;100;948.9492;;;;
2023/01/04 06:44:23;;;;;;;10.6;8.1;;;;;;;2.41;100;948.9511;;;;
2023/01/04 06:46:48;;;;;;;17.2;11.4;;;;;;;2.35;100;948.9548;;;;
2023/01/04 06:49:15;;;;;;;13.5;9.1;;;;;;;2.29;100;948.9947;;;;
2023/01/04 06:51:39;;;;;;;10.5;7.8;;;;;;;2.17;100;949.0235;;;;
2023/01/04 06:54:05;;;;;;;10.7;7.4;;;;;;;2.22;100;948.9592;;;;
2023/01/04 06:56:32;;;;;;;7.3;5.3;;;;;;;2.27;100;948.9414;;;;
2023/01/04 06:59:01;;;;;;;5.5;4.5;;;;;;;2.3;100;948.9217;;;;
2023/01/04 07:01:26;;;;;;;6.2;4.7;;;;;;;2.33;100;948.92;;;;
2023/01/04 07:03:51;;;;;;;14.4;7.7;;;;;;;2.39;100;948.9842;;;;
2023/01/04 07:06:19;;;;;;;38.4;19.3;;;;;;;2.38;100;948.9647;;;;
2023/01/04 07:08:44;;;;;;;27.3;14.1;;;;;;;2.37;100;948.9839;;;;
2023/01/04 07:11:09;;;;;;;14.2;8.9;;;;;;;2.29;100;948.9636;;;;
2023/01/04 07:13:39;;;;;;;16.3;11.3;;;;;;;2.27;100;948.9669;;;;
2023/01/04 07:16:10;;;;;;;9.9;7.3;;;;;;;2.24;100;948.8987;;;;
2023/01/04 07:18:40;;;;;;;10.1;7.7;;;;;;;2.18;100;948.8953;;;;
2023/01/04 07:21:06;;;;;;;11.9;8.7;;;;;;;2.19;100;948.9037;;;;
2023/01/04 07:23:35;;;;;;;9.7;7.6;;;;;;;2.18;100;948.8946;;;;
2023/01/04 07:25:59;;;;;;;8.4;7.4;;;;;;;2.02;100;948.938;;;;
2023/01/04 07:31:07;;;;;;;6.8;6;;;;;;;1.94;100;948.784;;;;
2023/01/04 07:33:34;;;;;;;4.7;4.1;;;;;;;2.03;100;948.8616;;;;
2023/01/04 07:35:59;;;;;;;6;5.3;;;;;;;2.1;100;948.8044;;;;
2023/01/04 07:38:26;;;;;;;5.1;4.6;;;;;;;2.19;100;948.8873;;;;
2023/01/04 07:40:57;;;;;;;5.4;3.3;;;;;;;2.29;100;948.9193;;;;
2023/01/04 07:43:22;;;;;;;4.6;3.8;;;;;;;2.22;100;948.7904;;;;
2023/01/04 07:45:47;;;;;;;6.5;4.8;;;;;;;2.19;100;948.9002;;;;
2023/01/04 07:48:14;;;;;;;6.1;5;;;;;;;2.18;100;948.8276;;;;
2023/01/04 07:50:39;;;;;;;5.5;3.8;;;;;;;2.14;100;948.8744;;;;
2023/01/04 07:53:08;;;;;;;5.1;3.6;;;;;;;2.02;100;948.7535;;;;
2023/01/04 07:55:33;;;;;;;7.1;6.4;;;;;;;2.04;100;948.7852;;;;
2023/01/04 07:58:01;;;;;;;5.8;5;;;;;;;2.15;100;948.8231;;;;
2023/01/04 08:00:27;;;;;;;8;6;;;;;;;2.22;100;948.8156;;;;
2023/01/04 08:02:53;;;;;;;12;9.8;;;;;;;2.19;100;948.778;;;;
2023/01/04 08:05:18;;;;;;;14.1;11.2;;;;;;;2.24;100;948.6778;;;;
2023/01/04 08:07:47;;;;;;;10.6;7.4;;;;;;;2.31;100;948.717;;;;
2023/01/04 08:10:12;;;;;;;8.8;6.4;;;;;;;2.44;100;948.7167;;;;
2023/01/04 08:12:40;;;;;;;7.6;6.4;;;;;;;2.58;100;948.6888;;;;
2023/01/04 08:15:05;;;;;;;10.3;8.3;;;;;;;2.89;100;948.5744;;;;
2023/01/04 08:17:37;;;;;;;9.8;6.9;;;;;;;3.45;99.90625;948.6576;;;;
2023/01/04 08:20:07;;;;;;;10.4;6.8;;;;;;;4.38;97.34668;948.5953;;;;
2023/01/04 08:22:50;;;;;;;11.7;7.7;;;;;;;5.7;89.34766;948.548;;;;
2023/01/04 08:25:27;;;;;;;13.3;9.2;;;;;;;6.14;82.5459;948.5237;;;;
2023/01/04 08:28:01;;;;;;;7.1;5.7;;;;;;;5.96;81.68848;948.5516;;;;
2023/01/04 08:30:47;;;;;;;5.3;4.7;;;;;;;6.48;80.24805;948.4673;;;;
2023/01/04 08:33:47;;;;;;;5.1;4.1;;;;;;;7.05;76.96875;948.4705;;;;
2023/01/04 08:35:50;;;;;;;5.9;4.5;;;;;;;7.37;75.7002;948.4;;;;
2023/01/04 08:38:20;;;;;;;5.6;4.4;;;;;;;7.13;76.00879;948.3611;;;;
2023/01/04 08:40:52;;;;;;;5.8;4;;;;;;;6.5;79.29004;948.3669;;;;
2023/01/04 08:43:17;;;;;;;5.9;4.5;;;;;;;6.96;78.77637;948.3242;;;;
2023/01/04 08:45:46;;;;;;;4.9;4.2;;;;;;;7.52;75.55566;948.4009;;;;
2023/01/04 08:48:17;;;;;;;5.8;4.3;;;;;;;8;74.60742;948.3998;;;;
2023/01/04 08:50:45;;;;;;;6.7;3.6;;;;;;;7.18;75.71191;948.4369;;;;
2023/01/04 08:53:10;;;;;;;5.1;3.6;;;;;;;6.63;79.22461;948.4612;;;;
2023/01/04 08:55:38;;;;;;;3.8;2.6;;;;;;;5.79;83.07813;948.4606;;;;
2023/01/04 08:58:04;;;;;;;5;2.8;;;;;;;5.4;86.29688;948.4546;;;;
2023/01/04 09:00:33;;;;;;;5.2;3.6;;;;;;;5.24;88.66602;948.3935;;;;
2023/01/04 09:03:03;;;;;;;5.8;4.1;;;;;;;4.86;91.57227;948.4037;;;;
2023/01/04 09:05:28;;;;;;;5.5;4.5;;;;;;;4.7;93.41992;948.4272;;;;
2023/01/04 09:07:55;;;;;;;7.3;5.3;;;;;;;4.59;95.2207;948.3531;;;;
2023/01/04 09:10:20;;;;;;;8.7;6.1;;;;;;;4.7;96.1123;948.3761;;;;
2023/01/04 09:12:48;;;;;;;8.3;5.7;;;;;;;4.63;95.2168;948.4437;;;;
2023/01/04 09:15:13;;;;;;;7.5;5;;;;;;;4.68;95.88086;948.3894;;;;
2023/01/04 09:17:41;;;;;;;4.9;4.4;;;;;;;4.95;96.17969;948.3395;;;;
2023/01/04 09:20:07;;;;;;;4.6;3.2;;;;;;;5.19;94.22754;948.3137;;;;
2023/01/04 09:22:36;;;;;;;4.3;3.1;;;;;;;5.31;91.98633;948.3535;;;;
2023/01/04 09:25:01;;;;;;;3.8;3.1;;;;;;;5.37;91.87402;948.2422;;;;
2023/01/04 09:27:28;;;;;;;4.4;2.6;;;;;;;5.36;90.9248;948.3461;;;;
2023/01/04 09:29:53;;;;;;;3.8;2.8;;;;;;;5.32;90.94824;948.3575;;;;
2023/01/04 09:32:22;;;;;;;3.5;2.9;;;;;;;5.25;91.90527;948.3254;;;;
2023/01/04 09:35:34;;;;;;;3.8;3;;;;;;;5.29;92.47656;948.3074;;;;
2023/01/04 09:38:03;;;;;;;5.1;3.6;;;;;;;5.51;92.79688;948.2756;;;;
2023/01/04 09:40:28;;;;;;;3.2;2.6;;;;;;;5.69;91.46973;948.2364;;;;
2023/01/04 09:42:57;;;;;;;2.9;2.2;;;;;;;5.85;89.45801;948.1599;;;;
2023/01/04 09:45:22;;;;;;;2.9;1.9;;;;;;;6.02;90.04785;948.1178;;;;
2023/01/04 09:47:48;;;;;;;4.1;3.3;;;;;;;6.13;90.19531;948.1763;;;;
2023/01/04 09:50:19;;;;;;;14;12.9;;;;;;;6.37;89.71289;948.1255;;;;
2023/01/04 09:52:43;;;;;;;5.1;3.9;;;;;;;6.57;88.95313;948.0161;;;;
2023/01/04 09:55:09;;;;;;;3.7;2.4;;;;;;;6.86;88.33594;948.0101;;;;
2023/01/04 09:57:38;;;;;;;1.9;1.6;;;;;;;7.21;86.62793;947.9106;;;;
2023/01/04 10:00:03;;;;;;;1.2;1;;;;;;;7.46;83.16504;947.9988;;;;
2023/01/04 10:02:31;;;;;;;4.1;2.9;;;;;;;7.52;82.54199;948.0461;;;;
2023/01/04 10:04:56;;;;;;;2;1.8;;;;;;;7.56;82.19727;948.0349;;;;
2023/01/04 10:07:23;;;;;;;1.4;1.2;;;;;;;7.61;82.02441;947.9644;;;;
2023/01/04 10:09:53;;;;;;;1.5;1.4;;;;;;;7.51;80.88281;947.9235;;;;
2023/01/04 10:12:22;;;;;;;1.4;1.3;;;;;;;7.48;81.02344;947.8876;;;;
2023/01/04 10:14:46;;;;;;;1.7;1.5;;;;;;;7.64;81.0791;947.9128;;;;
2023/01/04 10:17:11;;;;;;;3.5;2;;;;;;;7.83;80.625;947.8728;;;;
2023/01/04 10:19:37;;;;;;;2.5;2.1;;;;;;;7.85;78.90527;947.8317;;;;
2023/01/04 10:22:03;;;;;;;3.1;2.4;;;;;;;7.89;79.41309;947.8459;;;;
2023/01/04 10:24:28;;;;;;;2.4;2.2;;;;;;;7.8;78.89746;947.805;;;;
2023/01/04 10:26:53;;;;;;;2.2;1.8;;;;;;;8.14;79.29883;947.757;;;;
2023/01/04 10:29:18;;;;;;;1.7;1.5;;;;;;;8.18;78.51074;947.6925;;;;
2023/01/04 10:31:48;;;;;;;2.3;1.6;;;;;;;8.22;78.6875;947.6552;;;;
2023/01/04 10:34:13;;;;;;;2.3;1.2;;;;;;;8.43;78.59082;947.5628;;;;
2023/01/04 10:36:41;;;;;;;1.6;1.2;;;;;;;8.75;76.89746;947.5381;;;;
2023/01/04 10:39:08;;;;;;;1.8;1.6;;;;;;;8.78;76.8916;947.555;;;;
2023/01/04 10:41:34;;;;;;;19.1;7.5;;;;;;;8.62;79.64844;947.5374;;;;
2023/01/04 10:43:59;;;;;;;2.1;1.9;;;;;;;8.85;77.39453;947.5298;;;;
2023/01/04 10:46:24;;;;;;;2.8;1.9;;;;;;;8.9;77.70996;947.4614;;;;
2023/01/04 10:49:12;;;;;;;2.5;2.1;;;;;;;9.25;77.86621;947.4558;;;;
2023/01/04 10:51:37;;;;;;;2.5;2.3;;;;;;;9.85;77.08301;947.4224;;;;
2023/01/04 10:54:02;;;;;;;2.3;2.1;;;;;;;9.88;75.83496;947.4154;;;;
2023/01/04 10:56:27;;;;;;;2.9;1.8;;;;;;;9.9;73.5459;947.3847;;;;
2023/01/04 10:58:52;;;;;;;2.1;1.5;;;;;;;10;75.10352;947.3333;;;;
2023/01/04 11:01:34;;;;;;;2.3;1.9;;;;;;;10.06;74.01758;947.2802;;;;
2023/01/04 11:03:59;;;;;;;1.9;1.7;;;;;;;9.8;72.86719;947.2098;;;;
2023/01/04 11:06:24;;;;;;;1.6;1.3;;;;;;;9.7;73.52344;947.1873;;;;
2023/01/04 11:08:49;;;;;;;1.5;1.3;;;;;;;9.78;72.59082;947.1465;;;;
2023/01/04 11:11:14;;;;;;;1.3;1.2;;;;;;;9.64;71.56543;947.1317;;;;
2023/01/04 11:13:41;;;;;;;1.1;1;;;;;;;9.71;72.90039;947.02;;;;
2023/01/04 11:16:07;;;;;;;2.3;1.6;;;;;;;9.53;71.12402;947.0862;;;;
2023/01/04 11:18:32;;;;;;;1.5;1.2;;;;;;;9.65;70.41602;946.9675;;;;
2023/01/04 11:20:57;;;;;;;3.1;1.6;;;;;;;9.69;72.59961;946.9239;;;;
2023/01/04 11:23:23;;;;;;;2;1.8;;;;;;;9.66;73.1748;946.8452;;;;
2023/01/04 11:25:53;;;;;;;2.4;1.9;;;;;;;9.67;74.06543;946.8239;;;;
2023/01/04 11:28:18;;;;;;;3.6;2.7;;;;;;;9.62;75.39063;946.8417;;;;
2023/01/04 11:30:43;;;;;;;3.4;2.8;;;;;;;9.68;75.40039;946.9037;;;;
2023/01/04 11:33:10;;;;;;;3.2;2.4;;;;;;;9.71;74.6543;946.8458;;;;
2023/01/04 11:35:35;;;;;;;2.4;2;;;;;;;9.59;74.67969;946.8129;;;;
2023/01/04 11:38:00;;;;;;;2.2;2;;;;;;;9.58;76.25;946.7483;;;;
2023/01/04 11:40:32;;;;;;;2.3;1.7;;;;;;;9.49;76.49414;946.7855;;;;
2023/01/04 11:42:56;;;;;;;2;1.8;;;;;;;9.5;76.41602;946.7642;;;;
2023/01/04 11:45:24;;;;;;;2.3;1.9;;;;;;;9.57;77.36328;946.7263;;;;
2023/01/04 11:47:49;;;;;;;2;1.6;;;;;;;9.62;76.91699;946.705;;;;
2023/01/04 11:50:14;;;;;;;2.8;1.5;;;;;;;9.54;76.62988;946.6047;;;;
2023/01/04 11:52:44;;;;;;;1.4;1.3;;;;;;;9.53;75.46484;946.6108;;;;
2023/01/04 11:55:04;;;;;;;1.7;1.6;;;;;;;9.58;76.04395;946.6566;;;;
2023/01/04 11:57:38;;;;;;;5.3;1.7;;;;;;;9.79;75.55762;946.6848;;;;
2023/01/04 12:00:17;;;;;;;2.1;1.3;;;;;;;9.95;74.48926;946.6724;;;;
2023/01/04 12:02:42;;;;;;;2.8;1.4;;;;;;;10.13;73.96191;946.6253;;;;
2023/01/04 12:05:13;;;;;;;1.9;1.6;;;;;;;10.08;71.94629;946.5789;;;;
2023/01/04 12:07:40;;;;;;;2.7;1.5;;;;;;;10.06;70.97461;946.6301;;;;
2023/01/04 12:10:03;;;;;;;2.5;1.9;;;;;;;10.18;71.09668;946.6172;;;;
2023/01/04 12:12:31;;;;;;;5.2;2.9;;;;;;;10.28;71.1582;946.5302;;;;
2023/01/04 12:14:58;;;;;;;6.5;3.1;;;;;;;10.35;69.51563;946.4713;;;;
2023/01/04 12:17:31;;;;;;;4.6;3;;;;;;;10.43;69.68848;946.4464;;;;
2023/01/04 12:19:56;;;;;;;8.9;3.7;;;;;;;10.55;70.2207;946.4746;;;;
2023/01/04 12:22:22;;;;;;;7.3;3.8;;;;;;;10.43;69.07129;946.4575;;;;
2023/01/04 12:24:47;;;;;;;8.9;3.5;;;;;;;10.42;70.98633;946.3553;;;;
2023/01/04 12:27:12;;;;;;;8.9;2.7;;;;;;;10.37;70.5;946.3253;;;;
2023/01/04 12:29:40;;;;;;;7.7;3;;;;;;;10.4;70.92676;946.2662;;;;
2023/01/04 12:32:05;;;;;;;14.5;3;;;;;;;10.36;71.1377;946.185;;;;
2023/01/04 12:34:30;;;;;;;6.3;3.2;;;;;;;10.28;70.86133;946.1983;;;;
2023/01/04 12:37:01;;;;;;;6.1;2.2;;;;;;;10.33;71.42773;946.1118;;;;
2023/01/04 12:39:33;;;;;;;6.9;2.4;;;;;;;10.39;71.15332;946.0695;;;;
2023/01/04 12:42:05;;;;;;;2.7;1.6;;;;;;;10.38;72.84082;945.98;;;;
2023/01/04 12:44:35;;;;;;;1.3;0.9;;;;;;;10.35;74.20605;946.0041;;;;
2023/01/04 12:49:30;;;;;;;1.2;1;;;;;;;10.44;73.3291;945.8558;;;;
2023/01/04 12:51:58;;;;;;;4.4;1.3;;;;;;;10.51;73.26367;945.848;;;;
2023/01/04 12:54:23;;;;;;;2;1.2;;;;;;;10.59;71.09473;945.8622;;;;
2023/01/04 12:56:50;;;;;;;4.3;1.4;;;;;;;10.45;71.19629;945.9045;;;;
2023/01/04 12:59:15;;;;;;;2.3;1.6;;;;;;;10.41;71.39551;945.9014;;;;
2023/01/04 13:01:41;;;;;;;9.9;3.2;;;;;;;10.36;72.71094;945.9755;;;;
2023/01/04 13:04:09;;;;;;;8.5;2.8;;;;;;;10.32;72.78418;945.9992;;;;
2023/01/04 13:06:38;;;;;;;8.7;4.4;;;;;;;10.38;72.50977;945.9863;;;;
2023/01/04 13:09:06;;;;;;;9.7;4.5;;;;;;;10.46;72.52344;945.9462;;;;
2023/01/04 13:11:34;;;;;;;8.4;3.9;;;;;;;10.5;71.77637;945.8906;;;;
2023/01/04 13:14:02;;;;;;;2.4;1.6;;;;;;;10.44;68.56934;945.8478;;;;
2023/01/04 13:16:32;;;;;;;10.7;3.7;;;;;;;10.35;71.37598;945.8878;;;;
2023/01/04 13:18:57;;;;;;;7.9;4.6;;;;;;;10.34;73.37109;945.8096;;;;
2023/01/04 13:21:21;;;;;;;8.3;3.9;;;;;;;10.35;73.29297;945.7755;;;;
2023/01/04 13:23:51;;;;;;;5.3;2.1;;;;;;;10.33;71.50977;945.6995;;;;
2023/01/04 13:26:16;;;;;;;5;2.1;;;;;;;10.08;71.5;945.6621;;;;
2023/01/04 13:28:42;;;;;;;13;2.9;;;;;;;9.95;72.32324;945.5928;;;;
2023/01/04 13:31:10;;;;;;;5.9;2.6;;;;;;;9.89;72.73633;945.4554;;;;
2023/01/04 13:33:35;;;;;;;5.1;2.9;;;;;;;9.97;72.88672;945.5027;;;;
2023/01/04 13:36:02;;;;;;;4.5;2.6;;;;;;;10;73.00488;945.5893;;;;
2023/01/04 13:38:27;;;;;;;4.8;3;;;;;;;10.12;74.49805;945.4753;;;;
2023/01/04 13:40:54;;;;;;;4.8;2.9;;;;;;;10.26;75.82031;945.4781;;;;
2023/01/04 13:43:19;;;;;;;4.1;2.5;;;;;;;10.4;75.67578;945.4558;;;;
2023/01/04 13:45:44;;;;;;;4.5;2.9;;;;;;;10.44;75.12207;945.4785;;;;
2023/01/04 13:48:11;;;;;;;4.3;2.9;;;;;;;10.44;75.20313;945.4713;;;;
2023/01/04 13:50:35;;;;;;;3.8;2.8;;;;;;;10.32;76.1416;945.408;;;;
2023/01/04 13:53:00;;;;;;;2.3;1.8;;;;;;;10.3;76.94824;945.4171;;;;
2023/01/04 13:55:26;;;;;;;1.8;1.2;;;;;;;10.22;77.68652;945.4041;;;;
2023/01/04 13:57:51;;;;;;;1.6;1.1;;;;;;;10.27;77.2041;945.4275;;;;
2023/01/04 14:00:17;;;;;;;2.7;1.5;;;;;;;10.32;76.67578;945.4492;;;;
2023/01/04 14:02:42;;;;;;;1.9;1.2;;;;;;;10.32;76.5166;945.4133;;;;
2023/01/04 14:05:07;;;;;;;3.5;1.9;;;;;;;10.28;76.85254;945.3536;;;;
2023/01/04 14:07:32;;;;;;;2.6;1.7;;;;;;;10.15;77.17188;945.3915;;;;
2023/01/04 14:10:00;;;;;;;1.4;1.3;;;;;;;10.01;77.12305;945.3683;;;;
2023/01/04 14:12:26;;;;;;;2.5;2.1;;;;;;;9.84;77.95898;945.4437;;;;
2023/01/04 14:14:54;;;;;;;1.8;1.5;;;;;;;9.81;78.3291;945.4619;;;;
2023/01/04 14:17:19;;;;;;;4.7;1.9;;;;;;;9.6;79.05469;945.4669;;;;
2023/01/04 14:19:44;;;;;;;9.2;6.2;;;;;;;9.71;78.4834;945.4627;;;;
2023/01/04 14:22:09;;;;;;;12.5;8.1;;;;;;;9.75;78.85449;945.5154;;;;
2023/01/04 14:24:35;;;;;;;14.2;9.9;;;;;;;9.85;78.47363;945.4601;;;;
2023/01/04 14:27:00;;;;;;;15.1;8.8;;;;;;;9.8;78.62305;945.4187;;;;
2023/01/04 14:29:27;;;;;;;12.8;8.1;;;;;;;9.78;79.17871;945.3204;;;;
2023/01/04 14:31:53;;;;;;;14.6;8.8;;;;;;;9.77;78.91504;945.2908;;;;
2023/01/04 14:34:19;;;;;;;14.6;8.7;;;;;;;9.91;78.90723;945.2131;;;;
2023/01/04 14:36:44;;;;;;;13.1;8.4;;;;;;;9.97;78.42871;945.1113;;;;
2023/01/04 14:39:12;;;;;;;12.3;8;;;;;;;10.01;78.14844;945.1223;;;;
2023/01/04 14:41:37;;;;;;;11.7;8.1;;;;;;;10;77.14453;945.0156;;;;
2023/01/04 14:44:04;;;;;;;52;28.8;;;;;;;9.89;78.70996;944.9973;;;;
2023/01/04 14:46:29;;;;;;;15.5;10.3;;;;;;;9.81;79.85742;944.9278;;;;
2023/01/04 14:48:57;;;;;;;11.2;8.3;;;;;;;9.67;80.15039;945.0284;;;;
2023/01/04 14:51:22;;;;;;;5.7;3.1;;;;;;;9.46;79.41699;945.1231;;;;
2023/01/04 14:53:49;;;;;;;8.2;5.3;;;;;;;9.43;79.28809;945.0853;;;;
2023/01/04 14:56:14;;;;;;;11.2;6;;;;;;;9.55;78.77246;945.0698;;;;
2023/01/04 14:58:40;;;;;;;6.5;3.9;;;;;;;9.53;78.89648;945.0948;;;;
2023/01/04 15:01:06;;;;;;;20;11.7;;;;;;;9.47;78.45996;945.0814;;;;
2023/01/04 15:03:31;;;;;;;12.6;8.1;;;;;;;9.42;78.13477;945.0087;;;;
2023/01/04 15:05:57;;;;;;;11.7;7;;;;;;;9.39;78.50391;945.0369;;;;
2023/01/04 15:08:22;;;;;;;9.3;5.9;;;;;;;9.27;79.87109;945.0784;;;;
2023/01/04 15:10:48;;;;;;;12.3;8.2;;;;;;;9.06;79.84277;945.1086;;;;
2023/01/04 15:13:16;;;;;;;12.2;7.8;;;;;;;9.1;79.76172;945.0399;;;;
2023/01/04 15:15:45;;;;;;;10.1;6.8;;;;;;;9.15;79.58789;945.0139;;;;
2023/01/04 15:18:10;;;;;;;6;4.2;;;;;;;9;80.10547;945.0201;;;;
2023/01/04 15:20:38;;;;;;;3.5;2.5;;;;;;;8.82;79.86914;945.0044;;;;
2023/01/04 15:23:05;;;;;;;2.4;1.7;;;;;;;8.8;79.05664;945.0305;;;;
2023/01/04 15:25:36;;;;;;;7.4;4.6;;;;;;;8.81;79.19629;944.9955;;;;
2023/01/04 15:28:03;;;;;;;9.1;5.7;;;;;;;8.79;80.60352;945.1089;;;;
2023/01/04 15:30:28;;;;;;;11.9;7.8;;;;;;;8.83;80.65527;945.0912;;;;
2023/01/04 15:32:53;;;;;;;9.9;6.9;;;;;;;8.72;81.87402;945.1442;;;;
2023/01/04 15:35:20;;;;;;;13.3;8.6;;;;;;;8.68;82.18262;945.1248;;;;
2023/01/04 15:37:46;;;;;;;12.8;9.1;;;;;;;8.61;82.87305;945.0178;;;;
2023/01/04 15:40:17;;;;;;;13.1;8.6;;;;;;;8.56;82.85547;945.0689;;;;
2023/01/04 15:42:59;;;;;;;9.8;6.8;;;;;;;8.42;83.59961;944.9467;;;;
2023/01/04 15:45:12;;;;;;;11.6;8.5;;;;;;;8.1;85.58203;944.9581;;;;
2023/01/04 15:47:37;;;;;;;15.5;10.1;;;;;;;7.88;87.00293;945.0108;;;;
2023/01/04 15:50:05;;;;;;;17.6;10.6;;;;;;;7.92;87.23535;944.9698;;;;
2023/01/04 15:52:37;;;;;;;15.6;10;;;;;;;7.91;86.19141;944.9221;;;;